PWSweather.com
Personal Weather Stations
Station Observations
WISCHPK61
Green Bay Schmitt Park, Green Bay, WI 54311

Green Bay Schmitt ParkGreen Bay, WI 54311

Lat: 44.514277, Lon: -87.935067

Elevation: 735

Station Type: Acu Rite Pro Weather Center model 02032C

http://greenbayweathercam.com

High Low Average
Temperature 22.8°F-5.1°C 4.6°F-15.2°C 14.0°F-10.0°C
Dew Point 22.3°F-5.4°C -3.6°F-19.8°C 12.6°F-10.8°C
Winds 2.3 mph 3.7 kmh Calm Calm Calm WCalm W
Wind Gusts 3.5 mph5.6 kmh -- --
Humidity 99% 61% 94%
Pressure 29.23 in989.8 mb 29.01 in982.4 mb -
Precipitation 0.00 in0.0 mm - -
Hour Temp Dew Point Humidity Winds Wind Gusts Pressure Precip Precip Rate Daily Precip Total
12:00 AM 18.1°F-7.7°C 17.9°F-7.8°C 99% Calm Calm -- 29.07 in984.4 mb - 0.00 in0.0 mm 0.00 in0.0 mm
01:00 AM 17.1°F-8.3°C 16.9°F-8.4°C 99% Calm Calm -- 29.07 in984.4 mb - 0.00 in0.0 mm 0.00 in0.0 mm
02:00 AM 12.9°F-10.6°C 12.7°F-10.7°C 99% Calm Calm -- 29.06 in984.1 mb - 0.00 in0.0 mm 0.00 in0.0 mm
03:00 AM 10.8°F-11.8°C 10.6°F-11.9°C 99% Calm Calm -- 29.06 in984.1 mb - 0.00 in0.0 mm 0.00 in0.0 mm
04:00 AM 8.6°F-13.0°C 8.4°F-13.1°C 99% Calm Calm -- 29.06 in984.1 mb - 0.00 in0.0 mm 0.00 in0.0 mm
05:00 AM 7.3°F-13.7°C 7.1°F-13.8°C 99% Calm Calm -- 29.05 in983.7 mb - 0.00 in0.0 mm 0.00 in0.0 mm
06:00 AM 9.0°F-12.8°C 8.8°F-12.9°C 99% Calm Calm -- 29.05 in983.7 mb - 0.00 in0.0 mm 0.00 in0.0 mm
07:00 AM 9.1°F-12.7°C 8.9°F-12.8°C 99% Calm Calm -- 29.04 in983.4 mb - 0.00 in0.0 mm 0.00 in0.0 mm
08:00 AM 9.3°F-12.6°C 9.1°F-12.7°C 99% Calm Calm -- 29.05 in983.7 mb - 0.00 in0.0 mm 0.00 in0.0 mm
09:00 AM 11.3°F-11.5°C 11.1°F-11.6°C 99% Calm Calm -- 29.05 in983.7 mb - 0.00 in0.0 mm 0.00 in0.0 mm
10:00 AM 14.5°F-9.7°C 14.3°F-9.8°C 99% Calm Calm -- 29.05 in983.7 mb - 0.00 in0.0 mm 0.00 in0.0 mm
11:00 AM 16.8°F-8.4°C 11.9°F-11.2°C 81% Calm Calm -- 29.05 in983.7 mb - 0.00 in0.0 mm 0.00 in0.0 mm
12:00 PM 19.2°F-7.1°C 18.9°F-7.3°C 99% Calm Calm -- 29.05 in983.7 mb - 0.00 in0.0 mm 0.00 in0.0 mm
01:00 PM 21.7°F-5.7°C 21.5°F-5.8°C 99% Calm Calm -- 29.04 in983.4 mb - 0.00 in0.0 mm 0.00 in0.0 mm
02:00 PM 22.5°F-5.3°C 22.3°F-5.4°C 99% Calm Calm -- 29.02 in982.7 mb - 0.00 in0.0 mm 0.00 in0.0 mm
03:00 PM 22.8°F-5.1°C 20.8°F-6.2°C 92% Calm Calm -- 29.01 in982.4 mb - 0.00 in0.0 mm 0.00 in0.0 mm
04:00 PM 21.7°F-5.7°C 15.0°F-9.4°C 75% 1.2 mph WNW1.9 kmh WNW 2.3 mph3.7 kmh 29.02 in982.7 mb - 0.00 in0.0 mm 0.00 in0.0 mm
05:00 PM 21.0°F-6.1°C 14.9°F-9.5°C 77% Calm Calm -- 29.04 in983.4 mb - 0.00 in0.0 mm 0.00 in0.0 mm
06:00 PM 19.0°F-7.2°C 18.7°F-7.4°C 99% 1.2 mph NW1.9 kmh NW 2.3 mph3.7 kmh 29.07 in984.4 mb - 0.00 in0.0 mm 0.00 in0.0 mm
07:00 PM 16.2°F-8.8°C 16.0°F-8.9°C 99% Calm Calm 3.5 mph5.6 kmh 29.09 in985.1 mb - 0.00 in0.0 mm 0.00 in0.0 mm
08:00 PM 13.5°F-10.3°C 13.3°F-10.4°C 99% Calm Calm -- 29.14 in986.8 mb - 0.00 in0.0 mm 0.00 in0.0 mm
09:00 PM 11.3°F-11.5°C 11.1°F-11.6°C 99% Calm Calm -- 29.17 in987.8 mb - 0.00 in0.0 mm 0.00 in0.0 mm
10:00 PM 9.0°F-12.8°C 8.8°F-12.9°C 99% 2.3 mph N3.7 kmh N 2.3 mph3.7 kmh 29.20 in988.8 mb - 0.00 in0.0 mm 0.00 in0.0 mm
11:00 PM 7.0°F-13.9°C -3.6°F-19.8°C 61% Calm Calm -- 29.21 in989.2 mb - 0.00 in0.0 mm 0.00 in0.0 mm